< Cyclone 197116 1971 Season Cyclone 197118 >
Cyclone 197117 (YVONNE)
General InformationTrack Information on Google Maps || ResourceGoogle EarthGE AnimationAtom FeedGeoJSON
Detalied Best Track (Time Zone = UTC)
Year Month Day Hour Lat. Long. Pressure (hPa) Wind (kt) Class Image Chart
1971 2 19 00 -12.9 93.0 1002 0 0 -- --
1971 2 19 03 -12.9 93.1 1002 0 0 -- --
1971 2 19 06 -13.0 93.2 1002 0 0 -- --
1971 2 19 09 -13.0 93.3 1002 0 0 -- --
1971 2 19 12 -13.1 93.4 1002 0 0 -- --
1971 2 19 15 -13.1 93.5 1002 0 0 -- --
1971 2 19 18 -13.2 93.6 1002 0 0 -- --
1971 2 19 21 -13.3 93.8 1002 0 0 -- --
1971 2 20 00 -13.4 92.0 1002 0 0 -- --
1971 2 20 03 -13.4 91.9 1002 0 0 -- --
1971 2 20 06 -13.5 91.8 1002 0 0 -- --
1971 2 20 09 -13.5 91.7 1002 0 0 -- --
1971 2 20 12 -13.6 91.6 1002 0 0 -- --
1971 2 20 15 -13.6 91.5 1002 0 0 -- --
1971 2 20 18 -13.7 91.4 1002 0 0 -- --
1971 2 20 21 -13.8 91.2 1002 0 0 -- --
1971 2 21 00 -13.9 91.0 1002 0 0 -- --
1971 2 21 03 -14.2 90.7 1000 0 0 -- --
1971 2 21 06 -14.6 90.1 998 0 0 -- --
1971 2 21 09 -15.4 89.3 996 0 0 -- --
1971 2 21 12 -16.2 88.5 994 0 0 -- --
1971 2 21 15 -16.8 87.9 992 0 0 -- --
1971 2 21 18 -17.2 87.3 990 0 0 -- --
1971 2 21 21 -17.6 86.6 987 0 0 -- --
1971 2 22 00 -17.9 86.0 985 0 0 -- --
1971 2 22 03 -18.2 85.4 983 0 0 -- --
1971 2 22 06 -18.5 84.8 980 0 0 -- --
1971 2 22 09 -18.7 84.2 979 0 0 -- --
1971 2 22 12 -18.9 83.6 978 0 0 -- --
1971 2 22 15 -19.1 83.0 977 0 0 -- --
1971 2 22 18 -19.3 82.4 976 0 0 -- --
1971 2 22 21 -19.5 81.8 975 0 0 -- --
1971 2 23 00 -19.7 81.5 975 0 0 -- --
1971 2 23 03 -19.7 81.1 975 0 0 -- --
1971 2 23 06 -19.7 80.5 975 0 0 -- --
1971 2 23 09 -19.6 79.9 976 0 0 -- --
1971 2 23 12 -19.5 79.1 976 0 0 -- --
1971 2 23 15 -19.4 78.3 977 0 0 -- --
1971 2 23 18 -19.3 77.5 978 0 0 -- --
1971 2 23 21 -19.1 76.8 979 0 0 -- --
1971 2 24 00 -18.9 76.5 980 0 0 -- --
< Cyclone 197116 1971 Season Cyclone 197118 >

Help